Time;durP1;ratioP1;P1;durP2;ratioP2;P2;SDS_P1;SDS_P2;PMS_P1;PMS_P2;Temp;Humidity;BMP_temperature;BMP_pressure;BME280_temperature;BME280_humidity;BME280_pressure;Samples;Min_cycle;Max_cycle;Signal;HPM_P1;HPM_P2
2022/01/14 00:02:12;;;;;;;50.63;7.85;;;;;;;8.08;100.00;101231.53;4926947;29;20035;-83
2022/01/14 00:04:37;;;;;;;48.08;7.65;;;;;;;8.08;100.00;101255.66;4912415;29;20084;-82
2022/01/14 00:07:04;;;;;;;43.83;7.20;;;;;;;8.08;100.00;101231.53;4909966;29;20073;-81
2022/01/14 00:09:31;;;;;;;49.42;7.80;;;;;;;8.07;100.00;101237.91;4915798;29;20024;-82
2022/01/14 00:11:59;;;;;;;46.58;7.68;;;;;;;8.08;100.00;101242.25;4913988;29;20031;-82
2022/01/14 00:14:42;;;;;;;57.53;9.35;;;;;;;8.04;100.00;101246.28;4916735;29;20028;-82
2022/01/14 00:17:10;;;;;;;45.03;7.32;;;;;;;8.02;100.00;101219.69;4932366;29;20026;-84
2022/01/14 00:19:37;;;;;;;40.63;7.82;;;;;;;8.02;100.00;101225.03;4933612;29;20032;-83
2022/01/14 00:22:10;;;;;;;48.95;8.57;;;;;;;8.06;100.00;101225.53;4918072;29;20032;-83
2022/01/14 00:33:00;;;;;;;48.40;8.80;;;;;;;8.04;100.00;101227.53;4922521;29;20073;-83
2022/01/14 00:35:25;;;;;;;57.95;7.65;;;;;;;8.03;100.00;101221.34;4915342;29;20040;-83
2022/01/14 00:37:51;;;;;;;43.53;7.43;;;;;;;7.97;100.00;101222.84;4917417;29;20051;-84
2022/01/14 00:40:16;;;;;;;51.05;8.82;;;;;;;8.04;100.00;101211.44;4916424;29;20077;-83
2022/01/14 00:42:41;;;;;;;49.67;9.40;;;;;;;7.96;100.00;101194.41;4929700;29;20051;-82
2022/01/14 00:45:07;;;;;;;58.78;10.45;;;;;;;7.99;100.00;101201.25;4937204;29;20102;-84
2022/01/14 00:47:37;;;;;;;49.17;8.05;;;;;;;8.05;100.00;101189.03;4917885;29;20032;-84
2022/01/14 00:50:07;;;;;;;46.22;7.97;;;;;;;8.09;100.00;101201.91;4915347;29;20077;-83
2022/01/14 00:52:33;;;;;;;52.72;8.73;;;;;;;8.01;100.00;101183.16;4932555;29;20058;-83
2022/01/14 00:54:58;;;;;;;62.08;9.10;;;;;;;7.98;100.00;101216.50;4938344;29;20020;-84
2022/01/14 00:59:14;;;;;;;47.53;9.80;;;;;;;7.96;100.00;101207.78;4951835;29;20047;-85
2022/01/14 01:00:12;;;;;;;33.88;6.32;;;;;;;8.00;100.00;101208.28;4915655;29;20044;-84
2022/01/14 01:02:38;;;;;;;64.82;9.73;;;;;;;7.96;100.00;101210.47;4921552;29;20062;-85
2022/01/14 01:05:04;;;;;;;59.88;9.57;;;;;;;7.98;100.00;101203.09;4936232;29;20043;-83
2022/01/14 01:07:29;;;;;;;48.15;8.43;;;;;;;8.02;100.00;101190.19;4916515;29;20046;-84
2022/01/14 01:09:55;;;;;;;50.63;8.13;;;;;;;8.04;100.00;101203.41;4918339;29;20051;-83
2022/01/14 01:12:35;;;;;;;57.10;9.05;;;;;;;7.99;100.00;101201.25;4923061;29;20032;-84
2022/01/14 01:15:06;;;;;;;47.13;8.02;;;;;;;8.03;100.00;101180.31;4910976;29;20047;-86
2022/01/14 01:17:33;;;;;;;68.10;9.65;;;;;;;7.91;100.00;101183.38;4938230;29;20032;-86
2022/01/14 01:20:00;;;;;;;49.35;8.13;;;;;;;7.95;100.00;101224.06;4942294;29;20036;-87
2022/01/14 01:22:26;;;;;;;52.00;8.25;;;;;;;7.96;100.00;101225.72;4935664;29;20033;-87
2022/01/14 01:24:51;;;;;;;52.35;9.20;;;;;;;7.95;100.00;101224.06;4922011;29;20064;-87
2022/01/14 01:27:19;;;;;;;44.78;7.40;;;;;;;7.93;100.00;101248.31;4922998;29;20013;-86
2022/01/14 01:29:51;;;;;;;51.60;8.13;;;;;;;7.91;100.00;101231.59;4923434;29;20135;-85
2022/01/14 01:32:19;;;;;;;49.17;8.45;;;;;;;7.98;100.00;101243.31;4908014;29;20028;-86
2022/01/14 01:34:45;;;;;;;66.88;10.15;;;;;;;7.97;100.00;101263.06;4937835;29;20020;-84
2022/01/14 01:37:10;;;;;;;50.65;8.38;;;;;;;7.96;100.00;101242.63;4937140;29;20032;-86
2022/01/14 01:39:37;;;;;;;59.70;8.50;;;;;;;7.97;100.00;101211.31;4921674;29;20036;-85
2022/01/14 01:42:08;;;;;;;49.75;7.85;;;;;;;7.93;100.00;101231.41;4920469;29;20026;-85
2022/01/14 01:44:37;;;;;;;48.85;8.40;;;;;;;7.90;100.00;101237.94;4919393;29;20028;-87
2022/01/14 01:47:04;;;;;;;55.35;9.30;;;;;;;7.94;100.00;101246.47;4921567;29;20477;-86
2022/01/14 01:49:32;;;;;;;54.45;8.70;;;;;;;7.95;100.00;101232.09;4921285;29;20079;-86
2022/01/14 01:51:58;;;;;;;38.83;7.80;;;;;;;7.94;100.00;101235.75;4939464;29;20499;-86
2022/01/14 01:54:26;;;;;;;69.85;10.20;;;;;;;7.98;100.00;101221.03;4937924;29;20055;-85
2022/01/14 01:56:52;;;;;;;57.97;9.75;;;;;;;7.95;100.00;101240.97;4921575;29;20043;-86
2022/01/14 01:59:19;;;;;;;55.08;9.75;;;;;;;7.88;100.00;101221.22;4939404;29;20088;-85
2022/01/14 02:01:45;;;;;;;54.47;10.20;;;;;;;7.90;100.00;101224.56;4933244;29;20044;-86
2022/01/14 02:04:11;;;;;;;45.05;6.90;;;;;;;7.90;100.00;101211.16;4926328;29;20394;-85
2022/01/14 02:06:38;;;;;;;45.08;9.27;;;;;;;7.95;100.00;101246.31;4923951;29;20012;-86
2022/01/14 02:09:04;;;;;;;39.15;8.65;;;;;;;7.97;100.00;101222.03;4910203;29;20084;-87
2022/01/14 02:11:30;;;;;;;55.28;8.10;;;;;;;7.98;100.00;101229.06;4938378;29;20009;-87
2022/01/14 02:13:58;;;;;;;57.40;9.60;;;;;;;7.96;100.00;101220.34;4924260;29;20043;-86
2022/01/14 02:16:36;;;;;;;38.58;7.90;;;;;;;7.98;100.00;101219.19;4922718;29;20057;-87
2022/01/14 02:24:34;;;;;;;46.85;8.23;;;;;;;7.89;100.00;101228.25;4921588;29;20071;-86
2022/01/14 02:27:00;;;;;;;53.05;8.68;;;;;;;7.95;100.00;101250.84;4924494;29;20020;-87
2022/01/14 02:29:26;;;;;;;47.67;7.35;;;;;;;7.96;100.00;101273.97;4942842;29;20040;-86
2022/01/14 02:31:52;;;;;;;46.35;7.82;;;;;;;7.84;100.00;101251.19;4940934;29;20040;-86
2022/01/14 02:34:17;;;;;;;49.17;7.80;;;;;;;7.91;100.00;101253.03;4916835;29;20017;-84
2022/01/14 02:36:46;;;;;;;43.97;7.55;;;;;;;7.92;100.00;101243.97;4921737;29;20037;-85
2022/01/14 02:39:14;;;;;;;48.05;7.95;;;;;;;7.95;100.00;101232.09;4922132;29;20020;-85
2022/01/14 02:41:41;;;;;;;44.83;7.38;;;;;;;7.98;100.00;101243.31;4922613;29;20042;-85
2022/01/14 02:44:10;;;;;;;47.05;7.22;;;;;;;7.93;100.00;101218.84;4922222;29;20033;-87
2022/01/14 02:46:41;;;;;;;58.35;9.93;;;;;;;7.91;100.00;101204.81;4920581;29;20023;-85
2022/01/14 02:49:07;;;;;;;45.92;8.32;;;;;;;7.95;100.00;101238.28;4899551;29;20012;-83
2022/01/14 02:51:32;;;;;;;56.05;8.15;;;;;;;7.94;100.00;101236.59;4934758;29;20040;-86
2022/01/14 02:54:14;;;;;;;48.63;7.90;;;;;;;7.93;100.00;101232.25;4922941;29;20116;-85
2022/01/14 02:56:43;;;;;;;38.45;6.68;;;;;;;7.91;100.00;101207.50;4934751;29;20028;-86
2022/01/14 02:59:10;;;;;;;51.47;9.32;;;;;;;7.92;100.00;101200.28;4921675;29;20022;-87
2022/01/14 03:01:36;;;;;;;41.45;7.35;;;;;;;7.83;100.00;101210.16;4917871;29;20111;-85
2022/01/14 03:04:03;;;;;;;43.58;7.03;;;;;;;7.89;100.00;101216.69;4923586;29;20028;-86
2022/01/14 03:06:29;;;;;;;28.90;6.03;;;;;;;7.92;100.00;101235.94;4918021;29;20088;-83
2022/01/14 03:08:56;;;;;;;43.60;7.47;;;;;;;7.88;100.00;101229.25;4920480;29;20040;-86
2022/01/14 03:11:30;;;;;;;45.92;7.47;;;;;;;7.89;100.00;101251.53;4926541;29;20031;-86
2022/01/14 03:13:56;;;;;;;52.95;9.50;;;;;;;7.90;100.00;101256.72;4940687;29;20015;-86
2022/01/14 03:16:23;;;;;;;46.45;8.90;;;;;;;7.77;100.00;101218.88;4941139;29;20058;-85
2022/01/14 03:18:52;;;;;;;46.03;8.77;;;;;;;7.84;100.00;101217.19;4940980;29;20017;-86
2022/01/14 03:21:26;;;;;;;40.72;7.40;;;;;;;7.87;100.00;101232.09;4926537;29;20047;-85
2022/01/14 03:24:03;;;;;;;41.53;7.25;;;;;;;7.83;100.00;101242.31;4920112;29;20025;-86
2022/01/14 03:26:29;;;;;;;47.33;8.57;;;;;;;7.88;100.00;101242.66;4936531;29;20046;-85
2022/01/14 03:28:54;;;;;;;43.22;7.40;;;;;;;7.93;100.00;101244.81;4933760;29;20031;-86
2022/01/14 03:31:20;;;;;;;44.30;8.07;;;;;;;7.86;100.00;101220.56;4908266;29;20039;-87
2022/01/14 03:33:46;;;;;;;31.50;5.88;;;;;;;7.92;100.00;101238.63;4939546;29;20032;-84
2022/01/14 03:36:11;;;;;;;46.78;6.40;;;;;;;7.87;100.00;101222.22;4923743;29;20036;-85
2022/01/14 03:38:37;;;;;;;45.10;7.85;;;;;;;7.86;100.00;101231.28;4939210;29;20036;-86
2022/01/14 03:41:03;;;;;;;32.92;5.60;;;;;;;7.95;100.00;101238.28;4923743;29;20052;-86
2022/01/14 03:43:29;;;;;;;47.47;8.63;;;;;;;7.88;100.00;101237.31;4939689;29;20032;-86
2022/01/14 03:45:54;;;;;;;56.13;7.82;;;;;;;7.91;100.00;101273.63;4937729;29;20039;-85
2022/01/14 03:48:20;;;;;;;37.72;5.97;;;;;;;7.91;100.00;101277.16;4939292;29;20483;-86
2022/01/14 03:50:45;;;;;;;31.77;5.75;;;;;;;7.86;100.00;101282.19;4929629;29;20053;-86
2022/01/14 03:53:12;;;;;;;39.42;5.90;;;;;;;7.83;100.00;101287.03;4922357;29;20032;-85
2022/01/14 03:55:39;;;;;;;39.70;6.40;;;;;;;7.83;100.00;101277.16;4913713;29;20028;-85
2022/01/14 03:58:06;;;;;;;38.70;6.60;;;;;;;7.79;100.00;101280.34;4938552;29;20035;-84
2022/01/14 04:00:31;;;;;;;35.08;5.95;;;;;;;7.82;100.00;101280.00;4927580;29;20038;-86
2022/01/14 04:02:57;;;;;;;29.30;5.32;;;;;;;7.84;100.00;101277.97;4932978;29;20028;-86
2022/01/14 04:05:22;;;;;;;48.40;6.57;;;;;;;7.76;100.00;101265.44;4923093;29;20509;-86
2022/01/14 04:07:48;;;;;;;44.33;7.50;;;;;;;7.79;100.00;101275.81;4922941;29;20016;-86
2022/01/14 04:10:13;;;;;;;22.85;4.72;;;;;;;7.80;100.00;101266.78;4941002;29;20366;-85
2022/01/14 04:12:47;;;;;;;38.20;6.57;;;;;;;7.82;100.00;101285.38;4943095;29;20038;-87
2022/01/14 04:17:58;;;;;;;37.13;6.28;;;;;;;7.69;100.00;101267.13;4936327;29;20047;-85
2022/01/14 04:20:23;;;;;;;29.58;6.30;;;;;;;7.64;100.00;101278.34;4932249;29;20125;-86
2022/01/14 04:22:49;;;;;;;35.50;6.25;;;;;;;7.66;100.00;101294.25;4921243;29;20028;-83
2022/01/14 04:25:15;;;;;;;42.15;6.60;;;;;;;7.65;100.00;101316.66;4925037;29;20103;-84
2022/01/14 04:27:41;;;;;;;45.20;6.82;;;;;;;7.55;100.00;101295.44;4920725;29;20033;-83
2022/01/14 04:30:07;;;;;;;49.97;7.03;;;;;;;7.48;100.00;101310.47;4904975;29;20029;-85
2022/01/14 04:32:32;;;;;;;24.08;4.43;;;;;;;7.46;100.00;101297.25;4921796;29;20471;-84
2022/01/14 04:34:58;;;;;;;41.63;7.13;;;;;;;7.46;100.00;101302.63;4937323;29;20035;-85
2022/01/14 04:37:23;;;;;;;39.85;5.78;;;;;;;7.47;100.00;101303.44;4937486;29;20091;-86
2022/01/14 04:39:48;;;;;;;27.92;4.43;;;;;;;7.50;100.00;101320.00;4921230;29;20036;-84
2022/01/14 04:42:14;;;;;;;44.55;6.55;;;;;;;7.51;100.00;101329.72;4915366;29;20040;-85
2022/01/14 04:44:39;;;;;;;28.75;4.93;;;;;;;7.47;100.00;101328.38;4920424;29;20016;-84
2022/01/14 04:47:29;;;;;;;51.92;7.47;;;;;;;7.37;100.00;101335.72;4919697;29;20048;-82
2022/01/14 04:49:55;;;;;;;36.00;6.47;;;;;;;7.35;100.00;101359.16;4921177;29;20060;-84
2022/01/14 04:52:20;;;;;;;38.72;7.20;;;;;;;7.37;100.00;101351.78;4921521;29;20036;-85
2022/01/14 04:54:46;;;;;;;33.95;6.05;;;;;;;7.38;100.00;101364.16;4937575;29;20125;-84
2022/01/14 04:57:11;;;;;;;40.30;6.30;;;;;;;7.42;100.00;101370.91;4919546;29;20061;-85
2022/01/14 04:59:37;;;;;;;28.67;6.18;;;;;;;7.41;100.00;101353.13;4934074;29;20043;-86
2022/01/14 05:02:03;;;;;;;43.47;7.07;;;;;;;7.30;100.00;101356.97;4939597;29;20047;-85
2022/01/14 05:04:28;;;;;;;29.92;5.70;;;;;;;7.32;100.00;101362.19;4920938;29;20013;-86
2022/01/14 05:07:00;;;;;;;29.30;5.53;;;;;;;7.30;100.00;101369.53;4921722;29;20131;-84
2022/01/14 05:09:32;;;;;;;34.63;5.50;;;;;;;7.29;100.00;101365.19;4938506;28;20080;-85
2022/01/14 05:12:05;;;;;;;29.60;4.78;;;;;;;7.33;100.00;101361.16;4931751;29;20020;-83
2022/01/14 05:14:30;;;;;;;39.47;6.50;;;;;;;7.20;99.73;101366.16;4918630;29;20033;-84
2022/01/14 05:16:56;;;;;;;22.13;3.97;;;;;;;7.29;98.69;101379.41;4920361;29;20038;-85
2022/01/14 05:19:21;;;;;;;21.83;3.65;;;;;;;7.25;98.06;101382.53;4934763;29;20350;-86
2022/01/14 05:21:47;;;;;;;26.48;4.55;;;;;;;7.31;98.26;101379.22;4913369;29;20037;-84
2022/01/14 05:24:12;;;;;;;29.65;5.15;;;;;;;7.26;98.37;101384.25;4934782;29;20043;-87
2022/01/14 05:26:38;;;;;;;28.90;5.57;;;;;;;7.30;98.07;101405.16;4921316;29;20044;-84
2022/01/14 05:29:03;;;;;;;24.15;3.58;;;;;;;7.35;98.34;101402.00;4941111;29;20052;-85
2022/01/14 05:31:42;;;;;;;24.58;4.32;;;;;;;7.32;98.02;101401.47;4934695;29;20099;-83
2022/01/14 05:34:08;;;;;;;30.85;4.00;;;;;;;7.26;98.07;101409.16;4936659;29;20028;-81
2022/01/14 05:36:33;;;;;;;26.63;5.13;;;;;;;7.23;97.86;101430.06;4926035;29;20069;-82
2022/01/14 05:38:59;;;;;;;30.02;5.40;;;;;;;7.18;97.92;101421.66;4940153;29;20386;-82
2022/01/14 05:41:24;;;;;;;27.77;4.18;;;;;;;7.21;97.48;101430.22;4936855;28;20040;-83
2022/01/14 05:43:51;;;;;;;28.15;4.97;;;;;;;7.16;97.29;101429.88;4931103;29;20123;-84
2022/01/14 05:46:16;;;;;;;28.95;3.92;;;;;;;7.19;96.48;101436.75;4936324;29;20060;-83
2022/01/14 05:48:42;;;;;;;27.75;4.85;;;;;;;7.16;95.40;101445.94;4929702;29;20040;-85
2022/01/14 05:51:07;;;;;;;18.25;3.15;;;;;;;7.02;95.10;101434.00;4902275;29;20052;-84
2022/01/14 05:53:33;;;;;;;25.35;4.10;;;;;;;7.05;94.92;101444.38;4905026;29;20028;-84
2022/01/14 05:55:58;;;;;;;30.05;5.05;;;;;;;7.01;95.72;101455.56;4925932;29;20068;-83
2022/01/14 05:58:23;;;;;;;26.48;4.15;;;;;;;6.96;96.45;101465.91;4934770;29;20037;-83
2022/01/14 06:00:49;;;;;;;38.35;5.07;;;;;;;6.90;96.46;101472.72;4896749;29;20032;-85
2022/01/14 06:03:14;;;;;;;33.90;4.80;;;;;;;6.81;96.82;101462.97;4923429;29;20104;-82
2022/01/14 06:05:39;;;;;;;37.83;5.28;;;;;;;6.85;96.78;101493.75;4920568;29;20043;-84
2022/01/14 06:08:05;;;;;;;27.15;5.15;;;;;;;6.76;96.89;101470.66;4932249;29;20557;-82
2022/01/14 06:10:31;;;;;;;28.60;5.28;;;;;;;6.69;96.65;101481.13;4902907;29;20032;-82
2022/01/14 06:12:57;;;;;;;37.15;5.20;;;;;;;6.63;96.86;101495.13;4918013;29;20118;-82
2022/01/14 06:15:22;;;;;;;36.70;5.80;;;;;;;6.61;97.08;101502.47;4931759;29;20056;-83
2022/01/14 06:17:48;;;;;;;43.90;7.70;;;;;;;6.59;97.65;101518.66;4935444;29;20035;-81
2022/01/14 06:20:13;;;;;;;38.47;5.38;;;;;;;6.53;97.68;101507.75;4922579;29;20036;-83
2022/01/14 06:22:39;;;;;;;40.25;7.47;;;;;;;6.45;96.65;101511.19;4921273;29;20028;-83
2022/01/14 06:25:05;;;;;;;34.17;5.45;;;;;;;6.48;95.07;101534.09;4929639;29;20042;-82
2022/01/14 06:27:32;;;;;;;39.53;6.03;;;;;;;6.43;93.46;101542.59;4927180;29;20031;-82
2022/01/14 06:29:59;;;;;;;32.10;5.50;;;;;;;6.43;89.07;101541.75;4916129;29;20063;-82
2022/01/14 06:32:24;;;;;;;23.00;4.93;;;;;;;6.41;85.43;101528.53;4932782;29;20039;-81
2022/01/14 06:34:49;;;;;;;23.30;5.22;;;;;;;6.48;82.85;101547.47;4935749;29;20028;-82
2022/01/14 06:37:15;;;;;;;24.63;5.18;;;;;;;6.54;81.19;101569.09;4935173;29;20466;-82
2022/01/14 06:39:42;;;;;;;24.40;4.80;;;;;;;6.48;80.20;101556.34;4920719;29;20024;-83
2022/01/14 06:42:09;;;;;;;25.38;6.10;;;;;;;6.47;80.02;101551.16;4920712;29;20024;-83
2022/01/14 06:44:34;;;;;;;27.52;5.03;;;;;;;6.45;80.98;101580.69;4934590;29;20032;-82
2022/01/14 06:47:00;;;;;;;31.02;5.70;;;;;;;6.38;82.02;101574.28;4908530;29;20068;-83
2022/01/14 06:49:25;;;;;;;29.27;5.28;;;;;;;6.28;82.02;101578.88;4922956;29;20032;-81
2022/01/14 06:51:50;;;;;;;31.33;5.18;;;;;;;6.27;82.22;101578.03;4937051;29;20020;-81
2022/01/14 06:54:16;;;;;;;28.58;5.82;;;;;;;6.26;82.52;101596.91;4925769;29;20043;-80
2022/01/14 06:56:41;;;;;;;30.48;7.18;;;;;;;6.24;82.22;101566.81;4926693;29;20024;-82
2022/01/14 06:59:07;;;;;;;31.02;6.22;;;;;;;6.23;81.93;101584.69;4926323;29;20076;-81
2022/01/14 07:01:32;;;;;;;22.77;5.07;;;;;;;6.20;82.97;101573.47;4926151;29;20095;-82
2022/01/14 07:03:57;;;;;;;28.88;5.78;;;;;;;6.04;84.12;101566.94;4909181;29;20036;-82
2022/01/14 07:06:23;;;;;;;34.38;6.13;;;;;;;6.04;84.87;101607.00;4906201;29;20108;-81
2022/01/14 07:08:48;;;;;;;36.17;6.10;;;;;;;5.98;85.63;101604.94;4921634;29;20090;-80
2022/01/14 07:11:15;;;;;;;29.77;5.22;;;;;;;5.90;84.42;101591.47;4922724;29;20131;-80
2022/01/14 07:13:40;;;;;;;22.23;4.68;;;;;;;6.00;82.30;101591.44;4923010;29;20020;-80
2022/01/14 07:16:06;;;;;;;26.38;5.25;;;;;;;6.14;81.40;101614.13;4908704;29;20028;-80
2022/01/14 07:18:32;;;;;;;21.95;5.45;;;;;;;6.14;80.82;101635.50;4918741;29;20024;-80
2022/01/14 07:20:58;;;;;;;29.63;5.68;;;;;;;6.10;79.86;101641.16;4923771;29;20032;-79
2022/01/14 07:23:24;;;;;;;21.08;4.57;;;;;;;6.21;78.57;101655.31;4925096;29;20043;-80
2022/01/14 07:25:49;;;;;;;17.25;3.63;;;;;;;6.22;78.54;101633.75;4910308;29;20034;-81
2022/01/14 07:28:14;;;;;;;17.83;3.05;;;;;;;6.25;77.17;101659.34;4927677;29;20343;-80
2022/01/14 07:30:40;;;;;;;24.88;4.00;;;;;;;6.35;77.20;101692.19;4911840;29;20060;-81
2022/01/14 07:33:05;;;;;;;17.05;3.60;;;;;;;6.29;78.53;101679.44;4929463;29;20024;-80
2022/01/14 07:35:31;;;;;;;22.80;3.85;;;;;;;6.23;79.61;101682.72;4897459;29;20068;-80
2022/01/14 07:37:56;;;;;;;22.88;3.63;;;;;;;6.13;80.32;101696.13;4909991;29;20024;-79
2022/01/14 07:40:22;;;;;;;25.08;5.03;;;;;;;6.05;81.18;101685.34;4907893;29;20039;-80
2022/01/14 07:42:47;;;;;;;23.40;4.88;;;;;;;6.00;82.58;101672.44;4907654;29;20067;-81
2022/01/14 07:45:13;;;;;;;32.80;5.05;;;;;;;5.77;85.35;101668.41;4922960;29;20091;-79
2022/01/14 07:47:38;;;;;;;33.88;5.60;;;;;;;5.80;87.02;101686.81;4920508;29;20028;-79
2022/01/14 07:50:05;;;;;;;31.30;5.05;;;;;;;5.78;87.42;101686.97;4906380;29;20079;-80
2022/01/14 07:52:30;;;;;;;34.92;5.60;;;;;;;5.80;87.87;101703.69;4924475;29;20031;-78
2022/01/14 07:54:56;;;;;;;28.05;5.22;;;;;;;5.74;88.60;101712.28;4915989;29;20119;-79
2022/01/14 07:57:21;;;;;;;34.25;5.35;;;;;;;5.78;88.69;101731.53;4920119;29;20102;-80
2022/01/14 07:59:47;;;;;;;29.25;5.32;;;;;;;5.71;90.13;101741.09;4923948;29;20024;-80
2022/01/14 08:02:13;;;;;;;34.00;5.88;;;;;;;5.62;90.83;101748.97;4908842;29;20036;-80
2022/01/14 08:04:39;;;;;;;40.28;6.38;;;;;;;5.54;90.54;101743.53;4897478;29;20064;-80
2022/01/14 08:07:11;;;;;;;35.17;5.40;;;;;;;5.55;90.98;101752.38;4917137;29;20039;-79
2022/01/14 08:09:42;;;;;;;30.27;5.60;;;;;;;5.40;91.57;101735.97;4930305;29;20024;-80
2022/01/14 08:12:09;;;;;;;31.08;5.30;;;;;;;5.49;91.32;101766.28;4909343;29;20036;-81
2022/01/14 08:14:35;;;;;;;18.20;4.00;;;;;;;5.60;87.91;101756.31;4927398;29;20371;-81
2022/01/14 08:17:01;;;;;;;18.50;3.88;;;;;;;5.80;84.28;101766.94;4897413;29;20028;-81
2022/01/14 08:19:32;;;;;;;18.40;3.95;;;;;;;5.82;80.45;101749.78;4928093;29;20035;-79
2022/01/14 08:21:58;;;;;;;18.73;4.10;;;;;;;5.96;80.26;101769.03;4921747;29;20126;-82
2022/01/14 08:24:23;;;;;;;19.23;4.10;;;;;;;5.89;78.86;101776.75;4929596;29;20028;-83
2022/01/14 08:26:48;;;;;;;20.25;4.82;;;;;;;5.91;78.46;101782.78;4937067;29;20043;-82
2022/01/14 08:29:15;;;;;;;18.67;4.47;;;;;;;5.81;81.13;101788.16;4907132;29;20064;-83
2022/01/14 08:31:40;;;;;;;23.35;5.65;;;;;;;5.64;80.06;101765.69;4906434;29;20025;-81
2022/01/14 08:34:06;;;;;;;17.58;3.17;;;;;;;5.81;75.48;101788.16;4894405;29;20455;-81
2022/01/14 08:36:31;;;;;;;12.18;3.53;;;;;;;5.80;75.04;101783.81;4916246;29;20121;-83
2022/01/14 08:38:56;;;;;;;13.07;2.85;;;;;;;5.88;72.44;101817.81;4929659;29;20042;-82
2022/01/14 08:41:23;;;;;;;13.20;3.10;;;;;;;5.96;69.83;101787.72;4928794;29;20052;-81
2022/01/14 08:43:49;;;;;;;11.73;3.25;;;;;;;6.00;66.32;101811.34;4915241;29;20051;-83
2022/01/14 08:46:14;;;;;;;12.93;3.28;;;;;;;6.10;65.37;101836.22;4924577;29;20040;-82
2022/01/14 08:48:40;;;;;;;13.82;2.28;;;;;;;6.12;65.43;101862.78;4929638;29;20043;-81
2022/01/14 08:51:06;;;;;;;9.77;2.33;;;;;;;5.96;68.07;101831.34;4923940;29;20056;-80
2022/01/14 08:53:32;;;;;;;12.15;2.83;;;;;;;6.06;66.35;101852.66;4928137;29;20030;-80
2022/01/14 08:55:57;;;;;;;14.43;2.88;;;;;;;6.02;67.45;101849.44;4925328;29;20150;-82
2022/01/14 08:58:23;;;;;;;15.00;3.10;;;;;;;5.91;68.59;101849.56;4922758;29;20032;-82
2022/01/14 09:00:49;;;;;;;16.98;2.92;;;;;;;5.93;70.21;101863.69;4908756;29;20059;-81
2022/01/14 09:03:15;;;;;;;11.07;2.15;;;;;;;5.87;71.41;101872.22;4926991;29;20034;-82
2022/01/14 09:05:43;;;;;;;15.82;2.97;;;;;;;5.78;71.68;101871.22;4924400;29;20059;-82
2022/01/14 09:08:08;;;;;;;15.10;3.22;;;;;;;5.73;72.68;101875.31;4924182;29;20058;-82
2022/01/14 09:10:34;;;;;;;17.42;3.83;;;;;;;5.72;73.67;101881.63;4928253;29;20463;-80
2022/01/14 09:12:59;;;;;;;22.10;4.05;;;;;;;5.63;73.44;101865.50;4929526;29;20036;-83
2022/01/14 09:15:25;;;;;;;19.85;3.78;;;;;;;5.73;73.61;101884.19;4906617;29;20115;-81
2022/01/14 09:17:50;;;;;;;21.13;2.90;;;;;;;5.73;73.90;101883.31;4927791;29;20046;-80
2022/01/14 09:20:16;;;;;;;17.95;3.95;;;;;;;5.68;75.36;101896.25;4911908;29;20036;-82
2022/01/14 09:22:47;;;;;;;19.67;3.08;;;;;;;5.70;76.79;101908.50;4938088;29;20047;-86
2022/01/14 09:25:13;;;;;;;12.38;2.70;;;;;;;5.71;77.33;101917.34;4926330;29;20028;-80
2022/01/14 09:27:38;;;;;;;19.88;3.42;;;;;;;5.58;78.22;101907.78;4926733;29;20036;-80
2022/01/14 09:30:05;;;;;;;19.88;3.90;;;;;;;5.66;78.25;101923.09;4924169;29;20439;-80
2022/01/14 09:32:31;;;;;;;23.90;3.22;;;;;;;5.69;78.60;101921.97;4925898;29;20132;-80
2022/01/14 09:34:57;;;;;;;20.60;3.83;;;;;;;5.66;79.80;101925.75;4923026;29;20418;-80
2022/01/14 09:37:22;;;;;;;25.98;4.32;;;;;;;5.59;81.56;101930.81;4919709;29;20088;-80
2022/01/14 09:39:47;;;;;;;24.52;4.22;;;;;;;5.56;82.29;101960.50;4909572;29;20087;-81
2022/01/14 09:42:14;;;;;;;26.13;4.80;;;;;;;5.51;83.22;101954.69;4910462;29;20028;-81
2022/01/14 09:44:42;;;;;;;25.67;4.53;;;;;;;5.48;83.35;101960.31;4926994;29;20076;-82
2022/01/14 09:47:15;;;;;;;27.83;4.20;;;;;;;5.45;84.09;101965.09;4916344;29;20019;-81
2022/01/14 09:49:48;;;;;;;37.38;5.63;;;;;;;5.40;85.22;101962.84;4932820;29;20052;-82
2022/01/14 09:52:15;;;;;;;33.72;5.00;;;;;;;5.23;86.78;101959.00;4932808;29;20027;-82
2022/01/14 09:54:45;;;;;;;29.15;4.68;;;;;;;5.31;86.74;101966.31;4931064;29;20016;-81
2022/01/14 09:57:13;;;;;;;29.40;4.88;;;;;;;5.28;86.10;101966.59;4923102;29;20027;-82
2022/01/14 09:59:39;;;;;;;20.90;3.25;;;;;;;5.38;86.67;101980.81;4921258;29;20029;-82
2022/01/14 10:02:05;;;;;;;18.40;3.03;;;;;;;5.44;85.31;101977.59;4926242;29;20068;-81
2022/01/14 10:04:30;;;;;;;20.13;3.53;;;;;;;5.48;84.66;101973.66;4898672;29;20092;-81
2022/01/14 10:06:57;;;;;;;21.90;4.40;;;;;;;5.53;84.84;101990.13;4928953;29;20028;-79
2022/01/14 10:09:36;;;;;;;15.50;3.28;;;;;;;5.54;84.54;102009.66;4924711;29;20019;-81
2022/01/14 10:12:13;;;;;;;19.25;3.15;;;;;;;5.47;84.62;102009.34;4929386;29;20054;-83
2022/01/14 10:14:54;;;;;;;20.27;2.92;;;;;;;5.37;84.83;101971.13;4911541;29;20028;-82
2022/01/14 10:17:24;;;;;;;18.38;3.63;;;;;;;5.40;82.66;101985.03;4911908;29;20016;-81
2022/01/14 10:19:50;;;;;;;15.15;3.13;;;;;;;5.57;80.53;101998.72;4939223;29;20111;-80
2022/01/14 10:22:23;;;;;;;18.55;3.67;;;;;;;5.57;80.14;102015.56;4926197;29;20037;-80
2022/01/14 10:24:59;;;;;;;23.75;4.28;;;;;;;5.57;79.43;102004.88;4928030;29;20024;-81
2022/01/14 10:27:35;;;;;;;17.02;3.55;;;;;;;5.55;79.07;102017.50;4931201;29;20091;-81
2022/01/14 10:30:27;;;;;;;14.95;3.85;;;;;;;5.47;78.28;101977.31;4927325;29;20462;-82
2022/01/14 10:33:05;;;;;;;19.00;3.47;;;;;;;5.46;77.91;102021.00;4895820;29;20036;-83
2022/01/14 10:35:37;;;;;;;22.33;4.28;;;;;;;5.49;77.14;102026.06;4914035;29;20131;-85
2022/01/14 10:38:07;;;;;;;17.15;4.40;;;;;;;5.60;74.88;102030.47;4917379;29;20046;-83
2022/01/14 10:40:38;;;;;;;15.63;2.95;;;;;;;5.63;74.34;102039.06;4919251;29;20092;-82
2022/01/14 10:43:09;;;;;;;13.30;3.38;;;;;;;5.63;73.44;102025.69;4933682;29;20371;-84
2022/01/14 10:45:36;;;;;;;18.80;3.88;;;;;;;5.64;72.43;102035.41;4899899;29;20033;-83
2022/01/14 10:48:01;;;;;;;18.30;4.15;;;;;;;5.71;71.73;102045.53;4916439;29;20034;-83
2022/01/14 10:50:26;;;;;;;16.00;4.32;;;;;;;5.74;72.94;102058.63;4915749;29;20112;-82
2022/01/14 10:52:53;;;;;;;18.25;3.97;;;;;;;5.62;73.80;102045.34;4916200;29;20035;-83
2022/01/14 10:55:49;;;;;;;22.38;5.20;;;;;;;5.65;72.58;102031.72;4900811;29;20032;-84
2022/01/14 10:58:15;;;;;;;19.27;4.60;;;;;;;5.69;73.20;102056.34;4881693;29;20032;-83
2022/01/14 11:00:44;;;;;;;20.83;4.07;;;;;;;5.63;73.50;102056.91;4937093;29;20046;-84
2022/01/14 11:03:10;;;;;;;21.08;4.57;;;;;;;5.63;74.11;102057.75;4933250;29;20056;-84
2022/01/14 11:05:36;;;;;;;17.77;3.35;;;;;;;5.56;73.82;102037.91;4915845;29;20118;-83
2022/01/14 11:08:03;;;;;;;17.05;4.15;;;;;;;5.53;74.83;102062.22;4918069;29;20028;-84
2022/01/14 11:10:34;;;;;;;18.60;4.60;;;;;;;5.57;74.01;102062.78;4936558;29;20024;-83
2022/01/14 11:13:03;;;;;;;21.90;4.28;;;;;;;5.63;74.47;102080.94;4933467;29;20055;-83
2022/01/14 11:15:31;;;;;;;22.08;4.60;;;;;;;5.55;75.15;102075.41;4946042;29;20039;-83
2022/01/14 11:18:00;;;;;;;18.60;3.67;;;;;;;5.59;75.65;102091.00;4952913;29;20032;-83
2022/01/14 11:20:33;;;;;;;19.63;4.18;;;;;;;5.55;75.23;102057.56;4952076;29;20036;-83
2022/01/14 11:23:15;;;;;;;18.58;4.00;;;;;;;5.48;75.37;102069.75;4936666;29;20454;-84
2022/01/14 11:26:02;;;;;;;19.67;4.15;;;;;;;5.52;74.62;102068.50;4916205;29;20033;-85
2022/01/14 11:28:34;;;;;;;16.75;4.20;;;;;;;5.56;74.10;102091.31;4915729;29;20080;-84
2022/01/14 11:31:00;;;;;;;19.65;4.57;;;;;;;5.45;75.16;102083.38;4916462;29;20032;-83
2022/01/14 11:33:42;;;;;;;18.00;4.03;;;;;;;5.57;74.95;102076.13;4906915;29;20043;-83
2022/01/14 11:36:08;;;;;;;22.17;4.28;;;;;;;5.56;75.20;102112.66;4937138;29;20103;-84
2022/01/14 11:38:44;;;;;;;20.42;4.32;;;;;;;5.57;75.84;102109.00;4938497;29;20040;-84
2022/01/14 11:41:50;;;;;;;19.83;3.85;;;;;;;5.53;74.08;102102.25;4938929;29;20032;-85